Time;durP1;ratioP1;P1;durP2;ratioP2;P2;SDS_P1;SDS_P2;PMS_P1;PMS_P2;Temp;Humidity;BMP_temperature;BMP_pressure;BME280_temperature;BME280_humidity;BME280_pressure;Samples;Min_cycle;Max_cycle;Signal;HPM_P1;HPM_P2
2024/04/07 00:00:00;;;;;;;11.60;5.05;;;;;;;;;;5033656;28;20033;-74
2024/04/07 00:02:26;;;;;;;14.82;5.70;;;;;;;;;;5033517;28;20029;-75
2024/04/07 00:04:52;;;;;;;14.05;4.97;;;;;;;;;;5032904;28;20030;-75
2024/04/07 00:07:18;;;;;;;7.57;4.22;;;;;;;;;;5034309;28;20029;-76
2024/04/07 00:09:45;;;;;;;10.70;5.18;;;;;;;;;;5034144;28;20029;-76
2024/04/07 00:12:11;;;;;;;6.72;3.63;;;;;;;;;;5035486;28;20021;-76
2024/04/07 00:14:37;;;;;;;5.82;4.20;;;;;;;;;;5035998;28;20021;-77
2024/04/07 00:17:05;;;;;;;9.40;4.57;;;;;;;;;;5037007;28;20026;-76
2024/04/07 00:19:32;;;;;;;30.75;4.95;;;;;;;;;;5037014;28;20460;-77
2024/04/07 00:21:58;;;;;;;6.05;3.88;;;;;;;;;;5038248;28;20032;-77
2024/04/07 00:24:24;;;;;;;9.13;4.57;;;;;;;;;;5036609;28;20026;-77
2024/04/07 00:26:50;;;;;;;8.50;4.30;;;;;;;;;;5035337;28;20018;-77
2024/04/07 00:29:16;;;;;;;5.43;3.97;;;;;;;;;;5035832;28;20029;-75
2024/04/07 00:31:43;;;;;;;8.23;4.13;;;;;;;;;;5035411;28;20030;-77
2024/04/07 00:34:09;;;;;;;4.82;4.00;;;;;;;;;;5034288;28;20083;-77
2024/04/07 00:36:35;;;;;;;6.28;4.35;;;;;;;;;;5038591;28;20029;-76
2024/04/07 00:39:01;;;;;;;7.53;4.95;;;;;;;;;;5025925;28;20033;-78
2024/04/07 00:41:29;;;;;;;7.03;3.92;;;;;;;;;;5013222;28;20013;-77
2024/04/07 00:43:55;;;;;;;8.05;4.63;;;;;;;;;;5037815;28;20056;-77
2024/04/07 00:46:21;;;;;;;12.25;5.60;;;;;;;;;;5018850;28;20049;-76
2024/04/07 00:48:47;;;;;;;7.68;4.72;;;;;;;;;;5019346;28;20034;-77
2024/04/07 00:51:14;;;;;;;6.10;4.45;;;;;;;;;;5036498;28;20506;-76
2024/04/07 00:53:40;;;;;;;7.78;4.93;;;;;;;;;;5016966;28;20428;-76
2024/04/07 00:56:06;;;;;;;12.18;4.63;;;;;;;;;;5037335;28;20025;-76
2024/04/07 00:58:33;;;;;;;10.50;4.43;;;;;;;;;;5020091;28;20091;-76
2024/04/07 01:00:59;;;;;;;11.10;4.38;;;;;;;;;;5020895;28;20021;-77
2024/04/07 01:03:25;;;;;;;6.05;4.20;;;;;;;;;;5039948;28;20033;-76
2024/04/07 01:05:51;;;;;;;10.65;4.90;;;;;;;;;;5041042;28;20018;-76
2024/04/07 01:08:17;;;;;;;9.75;4.82;;;;;;;;;;5042894;28;20025;-78
2024/04/07 01:10:44;;;;;;;9.70;4.93;;;;;;;;;;5024868;28;20128;-77
2024/04/07 01:13:10;;;;;;;21.95;5.72;;;;;;;;;;5042791;28;20041;-76
2024/04/07 01:15:37;;;;;;;9.45;4.68;;;;;;;;;;5023683;28;20484;-76
2024/04/07 01:18:04;;;;;;;11.88;4.78;;;;;;;;;;5020396;28;20395;-77
2024/04/07 01:20:32;;;;;;;8.18;4.70;;;;;;;;;;5020566;28;20025;-76
2024/04/07 01:22:59;;;;;;;5.50;3.97;;;;;;;;;;5022211;28;20036;-76
2024/04/07 01:25:25;;;;;;;8.07;4.30;;;;;;;;;;5023064;28;20391;-76
2024/04/07 01:27:52;;;;;;;6.60;3.58;;;;;;;;;;5040778;28;20021;-75
2024/04/07 01:30:18;;;;;;;7.18;4.22;;;;;;;;;;5040273;28;20079;-77
2024/04/07 01:32:45;;;;;;;9.77;4.80;;;;;;;;;;5042248;28;20025;-76
2024/04/07 01:35:11;;;;;;;9.75;4.45;;;;;;;;;;5024056;28;20047;-76
2024/04/07 01:37:37;;;;;;;6.30;4.15;;;;;;;;;;5025126;28;20026;-76
2024/04/07 01:40:03;;;;;;;7.18;3.85;;;;;;;;;;5025413;28;20041;-76
2024/04/07 01:42:30;;;;;;;20.20;5.53;;;;;;;;;;5023533;28;20029;-76
2024/04/07 01:44:56;;;;;;;8.05;4.30;;;;;;;;;;5040335;28;20033;-76
2024/04/07 01:47:22;;;;;;;11.40;4.70;;;;;;;;;;5024211;28;20033;-76
2024/04/07 01:49:49;;;;;;;9.18;4.50;;;;;;;;;;5029355;28;20026;-76
2024/04/07 01:52:16;;;;;;;9.15;3.88;;;;;;;;;;5029665;28;20063;-76
2024/04/07 01:54:42;;;;;;;6.35;3.65;;;;;;;;;;5029548;28;20191;-77
2024/04/07 01:57:08;;;;;;;6.55;3.60;;;;;;;;;;5032349;28;20472;-76
2024/04/07 01:59:34;;;;;;;14.15;4.70;;;;;;;;;;5033142;28;20020;-76
2024/04/07 02:02:00;;;;;;;10.02;4.32;;;;;;;;;;5030107;28;20056;-76
2024/04/07 02:04:28;;;;;;;7.32;4.03;;;;;;;;;;5029799;28;20034;-77
2024/04/07 02:06:54;;;;;;;8.57;4.03;;;;;;;;;;5032529;28;20029;-78
2024/04/07 02:09:20;;;;;;;7.53;4.00;;;;;;;;;;5033984;28;20029;-77
2024/04/07 02:11:47;;;;;;;10.05;4.20;;;;;;;;;;5031751;28;20093;-77
2024/04/07 02:14:13;;;;;;;9.32;4.53;;;;;;;;;;5049438;28;20026;-77
2024/04/07 02:16:39;;;;;;;6.60;4.00;;;;;;;;;;5049415;28;20092;-75
2024/04/07 02:19:06;;;;;;;6.55;4.43;;;;;;;;;;5049201;28;20034;-77
2024/04/07 02:21:32;;;;;;;6.95;3.83;;;;;;;;;;5030384;28;20087;-78
2024/04/07 02:23:58;;;;;;;7.15;4.10;;;;;;;;;;5029631;28;20044;-77
2024/04/07 02:26:26;;;;;;;12.35;4.50;;;;;;;;;;5032148;28;20047;-77
2024/04/07 02:28:52;;;;;;;9.98;4.45;;;;;;;;;;5031190;28;20093;-76
2024/04/07 02:31:18;;;;;;;11.32;4.40;;;;;;;;;;5046198;28;20021;-76
2024/04/07 02:33:46;;;;;;;10.68;4.72;;;;;;;;;;5047877;28;20025;-76
2024/04/07 02:36:13;;;;;;;9.55;4.72;;;;;;;;;;5028281;28;20109;-75
2024/04/07 02:38:39;;;;;;;6.40;4.35;;;;;;;;;;5029610;28;20025;-77
2024/04/07 02:41:05;;;;;;;8.88;4.63;;;;;;;;;;5027484;28;20052;-77
2024/04/07 02:43:32;;;;;;;8.02;4.40;;;;;;;;;;5028874;28;20033;-77
2024/04/07 02:48:44;;;;;;;8.18;4.40;;;;;;;;;;5045749;28;20095;-76
2024/04/07 02:51:10;;;;;;;7.15;4.63;;;;;;;;;;5046684;28;20048;-77
2024/04/07 02:53:36;;;;;;;18.88;6.22;;;;;;;;;;5045888;28;20484;-76
2024/04/07 02:56:02;;;;;;;17.10;5.72;;;;;;;;;;5027806;28;20032;-76
2024/04/07 02:58:28;;;;;;;17.75;5.97;;;;;;;;;;5026354;28;20029;-75
2024/04/07 03:01:07;;;;;;;17.17;6.35;;;;;;;;;;5027175;28;20037;-77
2024/04/07 03:03:33;;;;;;;14.57;5.03;;;;;;;;;;5028465;28;20034;-76
2024/04/07 03:06:03;;;;;;;16.70;5.75;;;;;;;;;;5028731;28;20131;-76
2024/04/07 03:08:29;;;;;;;10.38;4.70;;;;;;;;;;5027635;28;20132;-76
2024/04/07 03:10:56;;;;;;;9.93;5.22;;;;;;;;;;5027617;28;20053;-76
2024/04/07 03:13:22;;;;;;;9.88;4.72;;;;;;;;;;5045534;28;20034;-76
2024/04/07 03:15:48;;;;;;;8.68;4.32;;;;;;;;;;5026218;28;20032;-76
2024/04/07 03:18:14;;;;;;;10.02;4.72;;;;;;;;;;5026084;28;20032;-76
2024/04/07 03:20:41;;;;;;;7.22;4.30;;;;;;;;;;5027131;28;20049;-76
2024/04/07 03:23:07;;;;;;;39.15;4.93;;;;;;;;;;5045436;28;20101;-76
2024/04/07 03:25:33;;;;;;;13.27;4.28;;;;;;;;;;5046553;28;20076;-77
2024/04/07 03:27:59;;;;;;;9.75;5.13;;;;;;;;;;5045980;28;20025;-77
2024/04/07 03:30:26;;;;;;;14.75;4.72;;;;;;;;;;5027761;28;20033;-78
2024/04/07 03:32:52;;;;;;;6.63;3.55;;;;;;;;;;5026702;28;20035;-77
2024/04/07 03:35:18;;;;;;;12.43;3.55;;;;;;;;;;5028699;28;20033;-77
2024/04/07 03:37:44;;;;;;;11.68;3.40;;;;;;;;;;5025236;28;20029;-76
2024/04/07 03:40:10;;;;;;;8.05;3.58;;;;;;;;;;5038671;28;20028;-76
2024/04/07 03:42:36;;;;;;;5.00;3.03;;;;;;;;;;5017283;28;20033;-76
2024/04/07 03:45:02;;;;;;;9.55;3.65;;;;;;;;;;5037648;28;20075;-76
2024/04/07 03:47:28;;;;;;;7.75;3.03;;;;;;;;;;5038212;28;20124;-76
2024/04/07 03:49:54;;;;;;;5.22;2.92;;;;;;;;;;5036008;28;20061;-76
2024/04/07 03:52:20;;;;;;;4.13;2.40;;;;;;;;;;5036587;28;20030;-77
2024/04/07 03:54:48;;;;;;;8.60;3.35;;;;;;;;;;5019715;28;20026;-75
2024/04/07 03:57:14;;;;;;;5.63;3.38;;;;;;;;;;5018342;28;20069;-76
2024/04/07 03:59:40;;;;;;;8.05;2.55;;;;;;;;;;5019979;28;20056;-76
2024/04/07 04:02:06;;;;;;;9.00;2.70;;;;;;;;;;5017800;28;20057;-75
2024/04/07 04:04:32;;;;;;;4.88;1.75;;;;;;;;;;5037442;28;20075;-76
2024/04/07 04:06:58;;;;;;;4.22;2.58;;;;;;;;;;5018881;28;20033;-75
2024/04/07 04:09:24;;;;;;;5.43;2.08;;;;;;;;;;5037028;28;20404;-76
2024/04/07 04:11:50;;;;;;;3.95;2.60;;;;;;;;;;5022785;28;20055;-77
2024/04/07 04:14:16;;;;;;;7.28;2.40;;;;;;;;;;5024872;28;20013;-76
2024/04/07 04:16:43;;;;;;;6.40;2.28;;;;;;;;;;5026969;28;20030;-75
2024/04/07 04:19:09;;;;;;;6.07;2.80;;;;;;;;;;5047140;28;20087;-75
2024/04/07 04:21:36;;;;;;;3.50;2.10;;;;;;;;;;5048564;28;20025;-77
2024/04/07 04:24:03;;;;;;;5.07;2.28;;;;;;;;;;5048493;28;20090;-76
2024/04/07 04:26:29;;;;;;;24.35;2.90;;;;;;;;;;5028815;28;20101;-77
2024/04/07 04:28:55;;;;;;;8.23;2.40;;;;;;;;;;5031267;28;20131;-77
2024/04/07 04:31:21;;;;;;;4.53;2.10;;;;;;;;;;5027546;28;20537;-77
2024/04/07 04:33:47;;;;;;;5.72;1.88;;;;;;;;;;5025051;28;20034;-76
2024/04/07 04:36:14;;;;;;;9.27;2.13;;;;;;;;;;5027254;28;20093;-76
2024/04/07 04:38:40;;;;;;;14.70;2.38;;;;;;;;;;5029072;28;20022;-76
2024/04/07 04:41:06;;;;;;;6.78;2.00;;;;;;;;;;5028778;28;20443;-76
2024/04/07 04:43:32;;;;;;;4.30;2.10;;;;;;;;;;5044185;28;20511;-76
2024/04/07 04:46:07;;;;;;;6.45;2.50;;;;;;;;;;5026972;28;20520;-77
2024/04/07 04:48:37;;;;;;;6.53;1.95;;;;;;;;;;5044936;28;20034;-76
2024/04/07 04:51:03;;;;;;;5.82;2.28;;;;;;;;;;5027558;28;20128;-76
2024/04/07 04:53:30;;;;;;;3.97;1.90;;;;;;;;;;5045963;28;20025;-77
2024/04/07 04:56:03;;;;;;;7.97;2.15;;;;;;;;;;5030769;28;20029;-76
2024/04/07 04:58:34;;;;;;;7.15;1.75;;;;;;;;;;5045658;28;20021;-77
2024/04/07 05:01:10;;;;;;;6.32;2.03;;;;;;;;;;5023452;28;20025;-77
2024/04/07 05:03:37;;;;;;;8.43;2.42;;;;;;;;;;5023181;28;20033;-77
2024/04/07 05:06:11;;;;;;;3.38;1.98;;;;;;;;;;5022059;28;20087;-77
2024/04/07 05:08:38;;;;;;;6.10;2.00;;;;;;;;;;5022424;28;20030;-77
2024/04/07 05:11:05;;;;;;;5.00;2.13;;;;;;;;;;5023834;28;20495;-75
2024/04/07 05:13:31;;;;;;;4.72;2.00;;;;;;;;;;5039726;28;20033;-75
2024/04/07 05:15:57;;;;;;;6.40;2.40;;;;;;;;;;5022762;28;20384;-76
2024/04/07 05:18:24;;;;;;;7.53;1.83;;;;;;;;;;5021588;28;20025;-76
2024/04/07 05:20:50;;;;;;;5.25;2.53;;;;;;;;;;5021958;28;20026;-75
2024/04/07 05:23:16;;;;;;;10.57;2.00;;;;;;;;;;5022153;28;20053;-76
2024/04/07 05:25:43;;;;;;;3.63;1.48;;;;;;;;;;5024495;28;20021;-75
2024/04/07 05:28:09;;;;;;;10.55;1.80;;;;;;;;;;5043376;28;20098;-75
2024/04/07 05:30:41;;;;;;;8.27;1.88;;;;;;;;;;5045595;28;20025;-76
2024/04/07 05:33:07;;;;;;;5.97;1.77;;;;;;;;;;5024150;28;20095;-75
2024/04/07 05:35:33;;;;;;;4.70;1.35;;;;;;;;;;5041164;28;20029;-76
2024/04/07 05:38:00;;;;;;;7.72;1.50;;;;;;;;;;5022043;28;20075;-76
2024/04/07 05:40:26;;;;;;;4.00;1.50;;;;;;;;;;5022978;28;20388;-75
2024/04/07 05:42:53;;;;;;;8.68;1.48;;;;;;;;;;5021906;28;20403;-76
2024/04/07 05:45:19;;;;;;;11.90;2.40;;;;;;;;;;5038688;28;20123;-76
2024/04/07 05:47:52;;;;;;;3.72;1.23;;;;;;;;;;5037955;28;20080;-75
2024/04/07 05:50:19;;;;;;;3.22;1.05;;;;;;;;;;5022137;28;20022;-77
2024/04/07 05:52:45;;;;;;;13.93;1.77;;;;;;;;;;5039550;28;20474;-77
2024/04/07 05:55:11;;;;;;;5.10;1.33;;;;;;;;;;5040256;28;20033;-76
2024/04/07 05:57:38;;;;;;;5.38;1.40;;;;;;;;;;5021001;28;20025;-76
2024/04/07 06:00:08;;;;;;;6.35;1.38;;;;;;;;;;5020687;28;20018;-76
2024/04/07 06:02:34;;;;;;;5.38;1.98;;;;;;;;;;5038139;28;20026;-77
2024/04/07 06:05:00;;;;;;;8.20;1.65;;;;;;;;;;5017886;28;20025;-76
2024/04/07 06:07:26;;;;;;;13.93;1.77;;;;;;;;;;5018957;28;20033;-77
2024/04/07 06:09:52;;;;;;;4.38;1.67;;;;;;;;;;5019495;28;20084;-77
2024/04/07 06:12:18;;;;;;;4.63;1.60;;;;;;;;;;5019062;28;20021;-76
2024/04/07 06:14:46;;;;;;;4.38;1.35;;;;;;;;;;5035934;28;20029;-76
2024/04/07 06:17:12;;;;;;;8.27;1.40;;;;;;;;;;5038104;28;20053;-76
2024/04/07 06:19:38;;;;;;;5.60;1.80;;;;;;;;;;5018052;28;20029;-75
2024/04/07 06:22:04;;;;;;;9.77;2.22;;;;;;;;;;5018932;28;20028;-77
2024/04/07 06:24:30;;;;;;;6.93;2.13;;;;;;;;;;5037540;28;20021;-77
2024/04/07 06:26:56;;;;;;;8.23;1.65;;;;;;;;;;5039804;28;20037;-76
2024/04/07 06:29:23;;;;;;;10.43;1.63;;;;;;;;;;5023458;28;20549;-76
2024/04/07 06:31:49;;;;;;;6.82;1.55;;;;;;;;;;5037390;28;20025;-77
2024/04/07 06:34:15;;;;;;;4.22;1.65;;;;;;;;;;5018185;28;20118;-75
2024/04/07 06:36:41;;;;;;;10.15;1.85;;;;;;;;;;5019963;28;20369;-76
2024/04/07 06:39:08;;;;;;;6.90;1.75;;;;;;;;;;5019559;28;20025;-76
2024/04/07 06:41:34;;;;;;;6.70;1.90;;;;;;;;;;5037303;28;20476;-77
2024/04/07 06:44:01;;;;;;;4.15;1.58;;;;;;;;;;5019409;28;20492;-77
2024/04/07 06:46:27;;;;;;;4.38;1.17;;;;;;;;;;5037558;28;20038;-76
2024/04/07 06:48:54;;;;;;;4.82;1.60;;;;;;;;;;5021346;28;20052;-76
2024/04/07 06:51:20;;;;;;;6.43;1.60;;;;;;;;;;5022963;28;20026;-76
2024/04/07 06:53:46;;;;;;;4.82;1.48;;;;;;;;;;5039082;28;20029;-76
2024/04/07 06:56:13;;;;;;;6.47;1.40;;;;;;;;;;5022557;28;20042;-77
2024/04/07 06:58:39;;;;;;;3.47;1.83;;;;;;;;;;5020285;28;20083;-77
2024/04/07 07:01:05;;;;;;;4.40;1.13;;;;;;;;;;5021118;28;20105;-77
2024/04/07 07:03:31;;;;;;;12.60;1.60;;;;;;;;;;5023759;28;20037;-79
2024/04/07 07:05:57;;;;;;;5.82;1.40;;;;;;;;;;5041246;28;20026;-78
2024/04/07 07:08:23;;;;;;;9.02;1.58;;;;;;;;;;5022330;28;20025;-78
2024/04/07 07:10:59;;;;;;;8.23;2.22;;;;;;;;;;5024024;28;20093;-77
2024/04/07 07:13:25;;;;;;;5.35;2.20;;;;;;;;;;5025292;28;20049;-77
2024/04/07 07:15:51;;;;;;;7.65;1.60;;;;;;;;;;5024204;28;20101;-77
2024/04/07 07:18:17;;;;;;;11.57;2.15;;;;;;;;;;5023868;28;20026;-77
2024/04/07 07:20:43;;;;;;;4.45;1.40;;;;;;;;;;5038483;28;20049;-76
2024/04/07 07:23:09;;;;;;;8.52;1.98;;;;;;;;;;5022978;28;20033;-77
2024/04/07 07:25:35;;;;;;;8.93;2.13;;;;;;;;;;5023492;28;20052;-77
2024/04/07 07:28:01;;;;;;;35.13;2.85;;;;;;;;;;5041854;28;20029;-78
2024/04/07 07:30:27;;;;;;;4.70;2.08;;;;;;;;;;5039457;28;20038;-77
2024/04/07 07:32:53;;;;;;;9.32;1.77;;;;;;;;;;5021454;28;20108;-76
2024/04/07 07:35:19;;;;;;;4.82;1.73;;;;;;;;;;5040219;28;20081;-77
2024/04/07 07:37:45;;;;;;;10.70;2.47;;;;;;;;;;5022850;28;20044;-77
2024/04/07 07:40:11;;;;;;;6.13;1.98;;;;;;;;;;5022578;28;20036;-75
2024/04/07 07:42:37;;;;;;;6.25;1.77;;;;;;;;;;5040545;28;20032;-76
2024/04/07 07:45:04;;;;;;;4.97;2.28;;;;;;;;;;5040783;28;20040;-77
2024/04/07 07:47:30;;;;;;;8.02;1.80;;;;;;;;;;5041253;28;20443;-77
2024/04/07 07:49:57;;;;;;;3.03;1.50;;;;;;;;;;5021546;28;20403;-77
2024/04/07 07:52:23;;;;;;;7.68;1.65;;;;;;;;;;5037854;28;20021;-77
2024/04/07 07:54:49;;;;;;;5.15;2.00;;;;;;;;;;5038114;28;20109;-75
2024/04/07 07:57:16;;;;;;;9.65;1.80;;;;;;;;;;5021071;28;20091;-77
2024/04/07 07:59:42;;;;;;;6.88;1.75;;;;;;;;;;5021771;28;20029;-78
2024/04/07 08:02:08;;;;;;;4.65;1.83;;;;;;;;;;5020881;28;20030;-78
2024/04/07 08:04:34;;;;;;;7.57;1.73;;;;;;;;;;5020289;28;20196;-76
2024/04/07 08:07:00;;;;;;;4.22;1.60;;;;;;;;;;5009153;28;20030;-77
2024/04/07 08:09:26;;;;;;;7.63;2.13;;;;;;;;;;5028437;28;20022;-76
2024/04/07 08:11:52;;;;;;;6.15;1.90;;;;;;;;;;5003967;28;20100;-77
2024/04/07 08:14:19;;;;;;;5.55;1.58;;;;;;;;;;5006321;28;20099;-77
2024/04/07 08:16:45;;;;;;;5.03;1.70;;;;;;;;;;5008767;28;20022;-77
2024/04/07 08:19:11;;;;;;;6.05;1.52;;;;;;;;;;5004010;28;20082;-78
2024/04/07 08:21:39;;;;;;;5.70;1.60;;;;;;;;;;5007758;28;20112;-77
2024/04/07 08:24:05;;;;;;;6.05;1.70;;;;;;;;;;5021046;28;20026;-77
2024/04/07 08:26:31;;;;;;;10.98;1.80;;;;;;;;;;5002492;28;20033;-77
2024/04/07 08:28:58;;;;;;;7.97;1.95;;;;;;;;;;5006729;28;20408;-77
2024/04/07 08:31:24;;;;;;;11.27;1.65;;;;;;;;;;5029377;28;20022;-76
2024/04/07 08:33:50;;;;;;;8.05;1.42;;;;;;;;;;5019829;28;20120;-76
2024/04/07 08:36:16;;;;;;;4.10;1.52;;;;;;;;;;5029738;28;20083;-76
2024/04/07 08:38:42;;;;;;;5.88;1.50;;;;;;;;;;5023456;28;20115;-76
2024/04/07 08:41:12;;;;;;;7.35;2.13;;;;;;;;;;5024982;28;20029;-76
2024/04/07 08:43:43;;;;;;;4.55;1.70;;;;;;;;;;5022672;28;20052;-77
2024/04/07 08:46:13;;;;;;;4.78;1.23;;;;;;;;;;5023407;28;20089;-77
2024/04/07 08:48:41;;;;;;;6.38;1.60;;;;;;;;;;5039978;28;20022;-78
2024/04/07 08:51:10;;;;;;;4.57;1.77;;;;;;;;;;5022132;28;20034;-77
2024/04/07 08:53:40;;;;;;;6.07;2.05;;;;;;;;;;5023872;28;20056;-78
2024/04/07 08:56:10;;;;;;;7.35;2.15;;;;;;;;;;5041056;28;20077;-77
2024/04/07 08:58:37;;;;;;;3.35;1.50;;;;;;;;;;5035843;28;20037;-77
2024/04/07 09:01:03;;;;;;;7.00;1.67;;;;;;;;;;5039102;28;20033;-77
2024/04/07 09:03:30;;;;;;;14.63;2.17;;;;;;;;;;5024838;28;20057;-76
2024/04/07 09:05:57;;;;;;;8.43;1.50;;;;;;;;;;5044840;28;20040;-77
2024/04/07 09:08:23;;;;;;;8.88;1.63;;;;;;;;;;5029391;28;20107;-77
2024/04/07 09:10:49;;;;;;;7.82;1.92;;;;;;;;;;5025190;28;20496;-77
2024/04/07 09:13:18;;;;;;;5.18;1.67;;;;;;;;;;5041613;28;20120;-77
2024/04/07 09:15:44;;;;;;;5.55;1.58;;;;;;;;;;5029795;28;20021;-79
2024/04/07 09:18:13;;;;;;;6.35;1.65;;;;;;;;;;5045624;28;20032;-76
2024/04/07 09:20:40;;;;;;;11.63;1.75;;;;;;;;;;5026009;28;20472;-77
2024/04/07 09:23:06;;;;;;;7.10;1.40;;;;;;;;;;5040539;28;20080;-77
2024/04/07 09:25:32;;;;;;;4.50;1.42;;;;;;;;;;5042777;28;20068;-77
2024/04/07 09:27:58;;;;;;;10.40;1.55;;;;;;;;;;5032632;28;20029;-78
2024/04/07 09:30:25;;;;;;;11.93;2.55;;;;;;;;;;5024162;28;20033;-77
2024/04/07 09:32:51;;;;;;;10.52;1.38;;;;;;;;;;5042533;28;20037;-77
2024/04/07 09:35:17;;;;;;;8.32;1.30;;;;;;;;;;5044754;28;20021;-77
2024/04/07 09:37:43;;;;;;;5.05;2.00;;;;;;;;;;5046491;28;20026;-77
2024/04/07 09:40:10;;;;;;;7.13;1.67;;;;;;;;;;5026270;28;20041;-79
2024/04/07 09:42:38;;;;;;;15.20;1.70;;;;;;;;;;5027717;28;20029;-76
2024/04/07 09:45:06;;;;;;;8.55;2.03;;;;;;;;;;5027712;28;20048;-76
2024/04/07 09:47:34;;;;;;;8.50;1.80;;;;;;;;;;5027104;28;20036;-77
2024/04/07 09:50:04;;;;;;;7.10;1.65;;;;;;;;;;5030311;28;20030;-78
2024/04/07 09:52:49;;;;;;;5.28;1.42;;;;;;;;;;5024564;28;20051;-77
2024/04/07 09:55:17;;;;;;;6.65;2.10;;;;;;;;;;5024771;28;20014;-77
2024/04/07 09:57:44;;;;;;;8.88;1.55;;;;;;;;;;5041427;28;20476;-76
2024/04/07 10:00:12;;;;;;;9.95;2.30;;;;;;;;;;5039226;28;20494;-78
2024/04/07 10:02:39;;;;;;;9.35;1.65;;;;;;;;;;5025617;28;20025;-77
2024/04/07 10:05:05;;;;;;;5.97;1.60;;;;;;;;;;5044728;28;20281;-77
2024/04/07 10:07:32;;;;;;;4.00;1.70;;;;;;;;;;5043274;28;20026;-77
2024/04/07 10:09:58;;;;;;;6.30;1.33;;;;;;;;;;5041799;28;20033;-77
2024/04/07 10:12:28;;;;;;;9.32;1.45;;;;;;;;;;5042481;28;20030;-77
2024/04/07 10:14:54;;;;;;;3.40;1.55;;;;;;;;;;5023152;28;20037;-78
2024/04/07 10:17:20;;;;;;;5.57;1.63;;;;;;;;;;5034367;28;20021;-78
2024/04/07 10:19:46;;;;;;;4.35;1.67;;;;;;;;;;5049813;28;20025;-77
2024/04/07 10:22:13;;;;;;;5.95;1.20;;;;;;;;;;5031573;28;20056;-78
2024/04/07 10:24:41;;;;;;;7.40;1.80;;;;;;;;;;5047931;28;20029;-77
2024/04/07 10:27:11;;;;;;;8.48;1.30;;;;;;;;;;5027189;28;20115;-78
2024/04/07 10:29:39;;;;;;;8.23;1.92;;;;;;;;;;5024629;28;20032;-77
2024/04/07 10:32:07;;;;;;;6.63;1.67;;;;;;;;;;5048332;28;20028;-78
2024/04/07 10:34:34;;;;;;;6.53;1.38;;;;;;;;;;5049876;28;20020;-77
2024/04/07 10:37:02;;;;;;;6.57;1.48;;;;;;;;;;5045730;28;20341;-77
2024/04/07 10:39:29;;;;;;;7.53;1.35;;;;;;;;;;5026347;28;20017;-77
2024/04/07 10:41:55;;;;;;;4.85;1.00;;;;;;;;;;5019668;28;20112;-73
2024/04/07 10:44:21;;;;;;;4.45;1.17;;;;;;;;;;5036203;28;20468;-74
2024/04/07 10:46:47;;;;;;;5.82;1.15;;;;;;;;;;5017819;28;20041;-74
2024/04/07 10:49:14;;;;;;;7.68;0.98;;;;;;;;;;5036013;28;20052;-74
2024/04/07 10:51:40;;;;;;;5.00;1.10;;;;;;;;;;5036851;28;20052;-75
2024/04/07 10:54:07;;;;;;;3.53;1.00;;;;;;;;;;5038901;28;20083;-74
2024/04/07 10:56:34;;;;;;;5.28;1.58;;;;;;;;;;5037539;28;20022;-74
2024/04/07 10:59:01;;;;;;;8.60;1.35;;;;;;;;;;5019580;28;20052;-73
2024/04/07 11:01:27;;;;;;;8.15;1.38;;;;;;;;;;5016635;28;20025;-74
2024/04/07 11:03:58;;;;;;;15.70;1.20;;;;;;;;;;5034107;28;20104;-75
2024/04/07 11:06:24;;;;;;;;;;;;;;;;;;5016661;28;20033;-74
2024/04/07 11:08:51;;;;;;;3.90;1.17;;;;;;;;;;5015578;28;19905;-74
2024/04/07 11:11:17;;;;;;;8.85;1.33;;;;;;;;;;5033350;28;20131;-75
2024/04/07 11:13:43;;;;;;;3.67;1.13;;;;;;;;;;5033178;28;20025;-75
2024/04/07 11:16:09;;;;;;;7.53;1.08;;;;;;;;;;5033753;28;20025;-75
2024/04/07 11:18:37;;;;;;;4.25;0.98;;;;;;;;;;5034073;28;20026;-75
2024/04/07 11:21:04;;;;;;;4.43;1.13;;;;;;;;;;5034430;28;20021;-74
2024/04/07 11:23:32;;;;;;;7.30;1.48;;;;;;;;;;5033729;28;20025;-75
2024/04/07 11:25:59;;;;;;;3.97;1.17;;;;;;;;;;5033138;28;20085;-75
2024/04/07 11:28:26;;;;;;;6.10;1.70;;;;;;;;;;5033615;28;20088;-73
2024/04/07 11:30:52;;;;;;;6.15;1.63;;;;;;;;;;5015852;28;20492;-75
2024/04/07 11:33:19;;;;;;;12.65;2.08;;;;;;;;;;5033750;28;20026;-73
2024/04/07 11:35:45;;;;;;;4.47;1.25;;;;;;;;;;5033627;28;20021;-74
2024/04/07 11:38:12;;;;;;;2.50;0.93;;;;;;;;;;5034653;28;20060;-75
2024/04/07 11:40:38;;;;;;;2.38;0.90;;;;;;;;;;5034775;28;20032;-75
2024/04/07 11:43:04;;;;;;;10.00;1.30;;;;;;;;;;5033580;28;20040;-75
2024/04/07 11:45:30;;;;;;;5.70;1.83;;;;;;;;;;5033748;28;20077;-74
2024/04/07 11:47:59;;;;;;;6.15;1.15;;;;;;;;;;5034565;28;20392;-75
2024/04/07 11:50:25;;;;;;;7.32;1.23;;;;;;;;;;5033459;28;20036;-75
2024/04/07 11:52:51;;;;;;;8.45;1.40;;;;;;;;;;5016100;28;20414;-74
2024/04/07 11:55:17;;;;;;;6.18;1.40;;;;;;;;;;5016780;28;20026;-73
2024/04/07 11:57:44;;;;;;;6.53;0.95;;;;;;;;;;5034465;28;20032;-74
2024/04/07 12:00:10;;;;;;;4.88;1.25;;;;;;;;;;5035268;28;20029;-74
2024/04/07 12:02:36;;;;;;;7.57;0.90;;;;;;;;;;5033868;28;20033;-75
2024/04/07 12:05:02;;;;;;;5.32;1.35;;;;;;;;;;5033941;28;20349;-74
2024/04/07 12:07:29;;;;;;;1.60;0.88;;;;;;;;;;5016536;28;20539;-75
2024/04/07 12:09:56;;;;;;;8.48;1.40;;;;;;;;;;5033222;28;20040;-74
2024/04/07 12:12:22;;;;;;;8.20;1.30;;;;;;;;;;5034363;28;20017;-73
2024/04/07 12:14:48;;;;;;;8.43;1.02;;;;;;;;;;5038322;28;20037;-74
2024/04/07 12:17:15;;;;;;;9.07;1.80;;;;;;;;;;5038292;28;20052;-75
2024/04/07 12:19:41;;;;;;;6.97;1.17;;;;;;;;;;5019423;28;20108;-75
2024/04/07 12:22:17;;;;;;;4.35;1.10;;;;;;;;;;5039266;28;20032;-75
2024/04/07 12:24:43;;;;;;;4.85;1.15;;;;;;;;;;5042868;28;20071;-75
2024/04/07 12:27:10;;;;;;;5.30;1.65;;;;;;;;;;5036827;28;20025;-74
2024/04/07 12:29:36;;;;;;;5.07;1.20;;;;;;;;;;5036213;28;20021;-75
2024/04/07 12:32:02;;;;;;;5.53;1.20;;;;;;;;;;5034987;28;20356;-75
2024/04/07 12:34:28;;;;;;;5.40;1.15;;;;;;;;;;5035325;28;20034;-73
2024/04/07 12:36:54;;;;;;;16.05;1.95;;;;;;;;;;5034944;28;20014;-73
2024/04/07 12:39:21;;;;;;;8.02;1.00;;;;;;;;;;5034878;28;20450;-75
2024/04/07 12:41:49;;;;;;;4.10;0.80;;;;;;;;;;5034200;28;20021;-76
2024/04/07 12:44:16;;;;;;;5.32;0.98;;;;;;;;;;5036402;28;20097;-74
2024/04/07 12:46:44;;;;;;;5.78;1.10;;;;;;;;;;5017373;28;20404;-76
2024/04/07 12:49:10;;;;;;;12.95;1.75;;;;;;;;;;5036300;28;20018;-74
2024/04/07 12:51:36;;;;;;;3.55;0.85;;;;;;;;;;5016819;28;20037;-75
2024/04/07 12:54:02;;;;;;;10.38;1.50;;;;;;;;;;5017692;28;20029;-75
2024/04/07 12:56:28;;;;;;;9.20;2.08;;;;;;;;;;5035173;28;20033;-76
2024/04/07 12:58:55;;;;;;;9.85;1.73;;;;;;;;;;5040306;28;20024;-75
2024/04/07 13:01:21;;;;;;;3.65;1.17;;;;;;;;;;5020378;28;20061;-75
2024/04/07 13:03:47;;;;;;;4.45;1.20;;;;;;;;;;5039884;28;20021;-74
2024/04/07 13:06:13;;;;;;;7.72;1.52;;;;;;;;;;5040637;28;20033;-75
2024/04/07 13:08:39;;;;;;;6.05;1.25;;;;;;;;;;5020452;28;20029;-76
2024/04/07 13:11:05;;;;;;;5.80;1.52;;;;;;;;;;5020164;28;20036;-75
2024/04/07 13:13:32;;;;;;;7.10;1.77;;;;;;;;;;5039567;28;20018;-75
2024/04/07 13:15:58;;;;;;;10.13;1.48;;;;;;;;;;5040323;28;20054;-76
2024/04/07 13:18:28;;;;;;;8.60;1.50;;;;;;;;;;5040709;28;20025;-75
2024/04/07 13:20:54;;;;;;;8.30;2.22;;;;;;;;;;5023136;28;20113;-75
2024/04/07 13:23:20;;;;;;;6.88;1.65;;;;;;;;;;5041272;28;20175;-76
2024/04/07 13:25:47;;;;;;;9.55;1.92;;;;;;;;;;5023625;28;20468;-74
2024/04/07 13:28:13;;;;;;;6.07;1.10;;;;;;;;;;5044184;28;20048;-75
2024/04/07 13:30:39;;;;;;;4.68;1.60;;;;;;;;;;5023525;28;20071;-75
2024/04/07 13:33:05;;;;;;;5.47;1.55;;;;;;;;;;5024210;28;20021;-76
2024/04/07 13:35:32;;;;;;;9.70;1.30;;;;;;;;;;5041690;28;20018;-76
2024/04/07 13:37:58;;;;;;;6.15;1.30;;;;;;;;;;5022776;28;20117;-75
2024/04/07 13:40:24;;;;;;;6.47;1.13;;;;;;;;;;5042162;28;20096;-75
2024/04/07 13:42:50;;;;;;;6.07;1.02;;;;;;;;;;5022638;28;20033;-75
2024/04/07 13:45:18;;;;;;;10.60;2.22;;;;;;;;;;5040355;28;20042;-75
2024/04/07 13:47:44;;;;;;;7.75;1.40;;;;;;;;;;5023536;28;20094;-74
2024/04/07 13:50:10;;;;;;;8.13;1.20;;;;;;;;;;5023293;28;20025;-74
2024/04/07 13:52:36;;;;;;;8.35;1.35;;;;;;;;;;5041163;28;20039;-75
2024/04/07 13:55:03;;;;;;;4.18;1.10;;;;;;;;;;5038459;28;20032;-74
2024/04/07 13:57:30;;;;;;;9.68;1.17;;;;;;;;;;5020347;28;20030;-74
2024/04/07 13:59:56;;;;;;;5.40;1.25;;;;;;;;;;5039216;28;20124;-75
2024/04/07 14:02:22;;;;;;;7.75;1.10;;;;;;;;;;5042448;28;20033;-76
2024/04/07 14:04:48;;;;;;;5.10;1.83;;;;;;;;;;5041687;28;20018;-73
2024/04/07 14:07:14;;;;;;;11.27;1.77;;;;;;;;;;5038019;28;20029;-75
2024/04/07 14:09:40;;;;;;;5.35;1.48;;;;;;;;;;5020233;28;20561;-75
2024/04/07 14:12:06;;;;;;;6.78;1.70;;;;;;;;;;5038526;28;20030;-74
2024/04/07 14:14:33;;;;;;;8.70;1.65;;;;;;;;;;5020672;28;20033;-74
2024/04/07 14:16:59;;;;;;;5.53;1.60;;;;;;;;;;5020810;28;20028;-74
2024/04/07 14:19:26;;;;;;;5.63;1.38;;;;;;;;;;5039714;28;20136;-74
2024/04/07 14:21:53;;;;;;;9.43;1.75;;;;;;;;;;5021504;28;20071;-75
2024/04/07 14:24:19;;;;;;;10.25;1.60;;;;;;;;;;5039430;28;20037;-75
2024/04/07 14:26:45;;;;;;;8.13;1.83;;;;;;;;;;5037068;28;20018;-75
2024/04/07 14:29:11;;;;;;;7.38;1.48;;;;;;;;;;5036327;28;20104;-74
2024/04/07 14:31:37;;;;;;;6.05;1.52;;;;;;;;;;5018163;28;20412;-76
2024/04/07 14:34:05;;;;;;;7.10;1.13;;;;;;;;;;5018161;28;20507;-75
2024/04/07 14:36:31;;;;;;;6.55;1.88;;;;;;;;;;5037884;28;20025;-75
2024/04/07 14:38:57;;;;;;;8.57;1.58;;;;;;;;;;5020481;28;20116;-74